Zawiyat Shammas, Egypt
Current Conditions -  °F | °C
As of 9:00 AM on Saturday 25 Oct 2014 (Local Time) from HEMM Reporting Station
Sand / Dust Storm Sand / Dust Storm  
Wind Chill: 73°   Ceiling: Unl
Heat Index: 73°   Visibility: 0.93mi
Dew Point: 57°   Wind: 12mph
Humidity: 57%   Direction: 270°W
Pressure: 29.97"   Gusts: NA
Location:  31.52°N, 26.4°E
Report Text: HEMM 250700Z 27010KT 1500 R33R/1500 SA NSC 23/14 Q1015 NOSIG
Loading
Personal Weather Stations






























Interactive Weather Map New forecast layout! Learn more

10-Day Weather Forecast

Advertisements
Track Severe Weather on mobile